Time;durP1;ratioP1;P1;durP2;ratioP2;P2;SDS_P1;SDS_P2;PMS_P1;PMS_P2;Temp;Humidity;BMP_temperature;BMP_pressure;BME280_temperature;BME280_humidity;BME280_pressure;Samples;Min_cycle;Max_cycle;Signal;HPM_P1;HPM_P2
2021/08/04 00:01:51;;;;;;;2.20;2.10;;;22.70;34.60;;;;;;5093485;28;20186;-64
2021/08/04 00:04:17;;;;;;;2.17;2.00;;;22.70;34.50;;;;;;5093050;28;20235;-63
2021/08/04 00:06:42;;;;;;;2.40;2.27;;;22.70;34.60;;;;;;5091624;28;20206;-63
2021/08/04 00:09:08;;;;;;;2.27;2.17;;;22.70;34.60;;;;;;5091897;28;20202;-63
2021/08/04 00:11:34;;;;;;;2.57;2.37;;;22.70;34.60;;;;;;5091380;28;20631;-64
2021/08/04 00:14:00;;;;;;;2.43;2.20;;;22.70;34.60;;;;;;5091861;28;20194;-64
2021/08/04 00:16:26;;;;;;;2.27;2.17;;;22.70;34.60;;;;;;5091497;28;20408;-63
2021/08/04 00:18:51;;;;;;;2.53;1.93;;;22.70;34.60;;;;;;5091422;28;20470;-63
2021/08/04 00:21:17;;;;;;;2.40;2.20;;;22.70;34.60;;;;;;5093341;28;20171;-63
2021/08/04 00:23:42;;;;;;;2.83;2.23;;;22.70;34.60;;;;;;5091565;28;20645;-64
2021/08/04 00:26:08;;;;;;;2.10;2.00;;;22.60;34.50;;;;;;5091054;28;20213;-63
2021/08/04 00:28:34;;;;;;;4.13;2.40;;;22.70;34.60;;;;;;5091452;28;20182;-63
2021/08/04 00:30:59;;;;;;;2.00;1.90;;;22.60;34.50;;;;;;5091294;28;20210;-62
2021/08/04 00:33:25;;;;;;;2.50;2.30;;;22.60;34.40;;;;;;5091156;28;20577;-63
2021/08/04 00:35:50;;;;;;;2.63;2.43;;;22.60;34.40;;;;;;5090833;28;20178;-64
2021/08/04 00:38:16;;;;;;;1.90;1.77;;;22.60;34.40;;;;;;5091293;28;20181;-64
2021/08/04 00:40:42;;;;;;;2.13;2.03;;;22.70;34.60;;;;;;5091175;28;20218;-63
2021/08/04 00:43:08;;;;;;;1.67;1.57;;;22.70;34.60;;;;;;5091052;28;20223;-63
2021/08/04 00:45:35;;;;;;;1.90;1.80;;;22.60;34.60;;;;;;5090972;28;20499;-64
2021/08/04 00:48:01;;;;;;;2.00;1.90;;;22.70;34.70;;;;;;5091946;28;20477;-63
2021/08/04 00:50:26;;;;;;;2.00;1.90;;;22.60;34.60;;;;;;5091762;28;20428;-64
2021/08/04 00:52:52;;;;;;;2.37;2.27;;;22.60;34.50;;;;;;5091525;28;20206;-64
2021/08/04 00:55:18;;;;;;;2.07;1.97;;;22.60;34.60;;;;;;5090940;28;20409;-62
2021/08/04 00:57:43;;;;;;;2.10;2.00;;;22.60;34.60;;;;;;5091084;28;20353;-63
2021/08/04 01:00:11;;;;;;;2.13;2.03;;;22.60;34.60;;;;;;5090668;28;20269;-64
2021/08/04 01:02:43;;;;;;;2.20;1.87;;;22.60;34.60;;;;;;5090621;28;20182;-63
2021/08/04 01:05:15;;;;;;;2.23;2.13;;;22.60;34.60;;;;;;5090628;28;20484;-64
2021/08/04 01:07:47;;;;;;;2.10;2.00;;;22.60;34.60;;;;;;5090649;28;20513;-64
2021/08/04 01:10:25;;;;;;;2.50;2.00;;;22.60;34.60;;;;;;5090688;28;20427;-64
2021/08/04 01:13:10;;;;;;;2.20;2.10;;;22.60;34.60;;;;;;5090538;28;20459;-63
2021/08/04 01:15:49;;;;;;;2.20;2.10;;;22.60;34.50;;;;;;5089227;28;20415;-64
2021/08/04 01:18:22;;;;;;;2.10;2.00;;;22.60;34.60;;;;;;5090537;28;20412;-64
2021/08/04 01:20:47;;;;;;;2.60;2.40;;;22.60;34.60;;;;;;5090494;28;20456;-64
2021/08/04 01:23:42;;;;;;;2.50;2.30;;;22.60;34.60;;;;;;5090395;28;20494;-64
2021/08/04 01:26:18;;;;;;;2.03;1.93;;;22.60;34.50;;;;;;5089970;28;20187;-64
2021/08/04 01:28:48;;;;;;;4.57;2.30;;;22.60;34.40;;;;;;5090443;28;20400;-63
2021/08/04 01:31:16;;;;;;;2.07;1.83;;;22.60;34.40;;;;;;5090360;28;20806;-63
2021/08/04 01:33:49;;;;;;;2.00;1.90;;;22.60;34.40;;;;;;5090155;28;20503;-64
2021/08/04 01:36:16;;;;;;;2.13;2.03;;;22.60;34.30;;;;;;5090271;28;20407;-64
2021/08/04 01:38:42;;;;;;;2.40;2.20;;;22.60;34.40;;;;;;5090394;28;21016;-64
2021/08/04 01:41:09;;;;;;;2.13;2.03;;;22.60;34.40;;;;;;5090346;28;20482;-64
2021/08/04 01:43:37;;;;;;;2.43;2.23;;;22.50;34.30;;;;;;5090280;28;20978;-64
2021/08/04 01:46:04;;;;;;;2.30;2.10;;;22.60;34.40;;;;;;5090161;28;20479;-64
2021/08/04 01:48:30;;;;;;;2.30;2.20;;;22.50;34.30;;;;;;5093562;28;21093;-64
2021/08/04 01:51:00;;;;;;;1.90;1.70;;;22.50;34.30;;;;;;5094312;28;20490;-64
2021/08/04 01:53:26;;;;;;;1.67;1.57;;;22.60;34.30;;;;;;5094508;28;20412;-63
2021/08/04 01:55:52;;;;;;;2.80;2.20;;;22.60;34.20;;;;;;5094226;28;20408;-64
2021/08/04 01:58:18;;;;;;;2.37;2.03;;;22.60;34.20;;;;;;5094289;28;20447;-63
2021/08/04 02:00:43;;;;;;;2.20;2.03;;;22.50;34.10;;;;;;5094091;28;20194;-64
2021/08/04 02:03:09;;;;;;;2.67;2.40;;;22.50;34.10;;;;;;5094153;28;20198;-63
2021/08/04 02:05:35;;;;;;;1.93;1.73;;;22.50;34.20;;;;;;5094035;28;20166;-64
2021/08/04 02:08:09;;;;;;;3.23;2.17;;;22.50;34.10;;;;;;5094243;28;20265;-63
2021/08/04 02:10:51;;;;;;;2.17;1.97;;;22.50;34.10;;;;;;5094044;28;20423;-64
2021/08/04 02:13:22;;;;;;;2.50;2.30;;;22.50;34.00;;;;;;5093904;28;20408;-63
2021/08/04 02:15:52;;;;;;;2.57;2.10;;;22.50;34.00;;;;;;5093738;28;20400;-64
2021/08/04 02:18:20;;;;;;;2.50;2.30;;;22.50;34.00;;;;;;5092826;28;20415;-63
2021/08/04 02:20:48;;;;;;;2.10;2.00;;;22.50;34.00;;;;;;5093828;28;20470;-63
2021/08/04 02:23:21;;;;;;;1.87;1.70;;;22.50;34.00;;;;;;5093745;28;20405;-63
2021/08/04 02:25:55;;;;;;;2.27;2.17;;;22.50;33.90;;;;;;5093491;28;20396;-62
2021/08/04 02:28:26;;;;;;;2.00;1.90;;;22.50;33.70;;;;;;5093671;28;20396;-62
2021/08/04 02:30:52;;;;;;;1.97;1.87;;;22.50;33.70;;;;;;5093576;28;20455;-63
2021/08/04 02:33:19;;;;;;;1.70;1.60;;;22.50;33.80;;;;;;5093498;28;20404;-62
2021/08/04 02:35:46;;;;;;;2.47;2.27;;;22.50;33.70;;;;;;5093505;28;20786;-63
2021/08/04 02:38:12;;;;;;;2.47;2.27;;;22.50;33.70;;;;;;5092324;28;20827;-63
2021/08/04 02:40:37;;;;;;;2.27;2.17;;;22.50;33.70;;;;;;5093466;28;20574;-64
2021/08/04 02:43:04;;;;;;;2.40;2.23;;;22.50;33.80;;;;;;5093500;28;20554;-64
2021/08/04 02:45:30;;;;;;;2.17;2.07;;;22.50;33.80;;;;;;5092071;28;20179;-63
2021/08/04 02:47:56;;;;;;;2.07;1.97;;;22.50;33.80;;;;;;5093451;28;20451;-63
2021/08/04 02:50:23;;;;;;;2.00;1.90;;;22.40;33.70;;;;;;5093151;28;20424;-62
2021/08/04 02:52:49;;;;;;;2.30;2.20;;;22.50;33.80;;;;;;5093213;28;20760;-63
2021/08/04 02:55:16;;;;;;;2.23;2.13;;;22.50;33.80;;;;;;5093032;28;20412;-63
2021/08/04 02:57:42;;;;;;;1.97;1.87;;;22.50;33.80;;;;;;5093001;28;20844;-63
2021/08/04 03:00:08;;;;;;;2.37;2.27;;;22.40;33.70;;;;;;5093171;28;20505;-63
2021/08/04 03:02:34;;;;;;;2.17;2.00;;;22.40;33.70;;;;;;5093106;28;20821;-63
2021/08/04 03:05:00;;;;;;;1.90;1.80;;;22.50;33.80;;;;;;5092804;28;20409;-63
2021/08/04 03:07:25;;;;;;;2.67;2.30;;;22.50;33.70;;;;;;5092878;28;20417;-64
2021/08/04 03:09:51;;;;;;;2.40;2.20;;;22.50;33.80;;;;;;5092901;28;20226;-63
2021/08/04 03:12:17;;;;;;;2.97;2.13;;;22.40;33.70;;;;;;5092933;28;20766;-63
2021/08/04 03:14:42;;;;;;;2.20;2.10;;;22.40;33.70;;;;;;5092902;28;20199;-64
2021/08/04 03:17:08;;;;;;;2.07;1.97;;;22.40;33.70;;;;;;5093493;28;20429;-64
2021/08/04 03:19:33;;;;;;;2.07;1.97;;;22.40;33.70;;;;;;5092808;28;20186;-64
2021/08/04 03:21:59;;;;;;;2.27;2.07;;;22.50;33.70;;;;;;5092646;28;20270;-64
2021/08/04 03:24:25;;;;;;;1.80;1.70;;;22.40;33.70;;;;;;5092596;28;20175;-64
2021/08/04 03:26:50;;;;;;;2.40;2.30;;;22.40;33.70;;;;;;5092808;28;20538;-63
2021/08/04 03:29:16;;;;;;;1.90;1.80;;;22.40;33.70;;;;;;5092465;28;20232;-63
2021/08/04 03:31:41;;;;;;;2.50;2.30;;;22.50;33.80;;;;;;5092648;28;20191;-62
2021/08/04 03:34:07;;;;;;;2.50;2.27;;;22.50;33.80;;;;;;5092340;28;20209;-63
2021/08/04 03:36:32;;;;;;;2.30;2.20;;;22.50;33.80;;;;;;5092477;28;20198;-64
2021/08/04 03:38:58;;;;;;;2.57;2.37;;;22.50;33.80;;;;;;5092344;28;20171;-64
2021/08/04 03:41:23;;;;;;;4.13;2.20;;;22.50;34.60;;;;;;5092534;28;20649;-64
2021/08/04 03:43:49;;;;;;;2.73;2.50;;;22.40;33.80;;;;;;5092323;28;20233;-62
2021/08/04 03:46:14;;;;;;;2.03;1.93;;;22.40;33.70;;;;;;5092030;28;20181;-64
2021/08/04 03:48:40;;;;;;;2.27;2.17;;;22.40;33.70;;;;;;5091047;28;20191;-63
2021/08/04 03:51:06;;;;;;;2.40;2.20;;;22.40;33.70;;;;;;5091999;28;20685;-62
2021/08/04 03:53:31;;;;;;;2.27;2.17;;;22.40;33.70;;;;;;5092401;28;20173;-63
2021/08/04 03:55:57;;;;;;;2.63;2.43;;;22.40;33.80;;;;;;5091835;28;20198;-62
2021/08/04 03:58:22;;;;;;;2.43;2.23;;;22.40;33.70;;;;;;5091949;28;20198;-62
2021/08/04 04:00:48;;;;;;;2.03;1.93;;;22.40;33.70;;;;;;5091922;28;20214;-63
2021/08/04 04:03:13;;;;;;;2.50;2.40;;;22.40;33.70;;;;;;5092005;28;20594;-63
2021/08/04 04:05:39;;;;;;;2.43;2.27;;;22.40;33.60;;;;;;5091806;28;20250;-63
2021/08/04 04:08:05;;;;;;;2.47;2.27;;;22.40;33.60;;;;;;5091846;28;20167;-62
2021/08/04 04:10:30;;;;;;;2.33;2.23;;;22.40;33.50;;;;;;5090893;28;20222;-63
2021/08/04 04:12:56;;;;;;;2.30;2.20;;;22.40;33.60;;;;;;5091691;28;20672;-64
2021/08/04 04:15:21;;;;;;;2.50;2.40;;;22.40;33.50;;;;;;5091503;28;20175;-64
2021/08/04 04:17:47;;;;;;;2.37;2.27;;;22.40;33.60;;;;;;5091695;28;20167;-63
2021/08/04 04:20:13;;;;;;;2.57;2.47;;;22.40;33.60;;;;;;5091179;28;20592;-65
2021/08/04 04:22:43;;;;;;;2.43;2.30;;;22.40;33.80;;;;;;5092978;28;20644;-65
2021/08/04 04:25:10;;;;;;;2.50;2.40;;;22.40;34.00;;;;;;5091605;28;20182;-63
2021/08/04 04:27:35;;;;;;;2.70;2.50;;;22.40;33.90;;;;;;5091916;28;20413;-64
2021/08/04 04:30:01;;;;;;;2.87;2.60;;;22.40;34.10;;;;;;5091917;28;20540;-63
2021/08/04 04:32:26;;;;;;;5.60;2.57;;;22.40;33.90;;;;;;5090119;28;20244;-67
2021/08/04 04:34:52;;;;;;;5.53;3.07;;;22.40;34.00;;;;;;5090321;28;20609;-65
2021/08/04 04:37:18;;;;;;;2.87;2.67;;;22.40;33.90;;;;;;5090179;28;20270;-64
2021/08/04 04:39:43;;;;;;;2.40;2.30;;;22.40;33.70;;;;;;5089194;28;20198;-64
2021/08/04 04:42:09;;;;;;;2.20;2.10;;;22.40;34.00;;;;;;5078967;28;20259;-65
2021/08/04 04:44:34;;;;;;;2.70;2.50;;;22.50;34.00;;;;;;5079724;28;20266;-63
2021/08/04 04:47:00;;;;;;;3.80;2.50;;;22.50;34.10;;;;;;5088601;28;20613;-64
2021/08/04 04:49:25;;;;;;;2.83;2.50;;;22.40;34.00;;;;;;5088734;28;20247;-63
2021/08/04 04:51:51;;;;;;;3.73;2.70;;;22.50;34.10;;;;;;5089443;28;20210;-63
2021/08/04 04:54:16;;;;;;;2.57;2.37;;;22.50;34.10;;;;;;5089947;28;20616;-63
2021/08/04 04:56:42;;;;;;;4.83;3.03;;;22.50;34.00;;;;;;5089627;28;20223;-63
2021/08/04 04:59:07;;;;;;;2.67;2.47;;;22.50;34.00;;;;;;5088534;28;20672;-65
2021/08/04 05:01:33;;;;;;;2.70;2.40;;;22.50;33.90;;;;;;5088173;28;20257;-64
2021/08/04 05:03:58;;;;;;;3.00;2.80;;;22.50;34.00;;;;;;5089608;28;20230;-64
2021/08/04 05:06:24;;;;;;;3.80;2.60;;;22.50;33.90;;;;;;5089148;28;20194;-64
2021/08/04 05:08:49;;;;;;;2.73;2.53;;;22.50;33.80;;;;;;5090045;28;20198;-62
2021/08/04 05:11:15;;;;;;;3.03;2.40;;;22.50;33.90;;;;;;5090102;28;20213;-64
2021/08/04 05:13:40;;;;;;;3.13;2.70;;;22.50;33.80;;;;;;5088757;28;20167;-63
2021/08/04 05:16:06;;;;;;;2.50;2.30;;;22.50;33.70;;;;;;5089896;28;20719;-63
2021/08/04 05:18:32;;;;;;;2.43;2.30;;;22.40;33.60;;;;;;5089731;28;20179;-63
2021/08/04 05:20:57;;;;;;;2.80;2.60;;;22.40;33.60;;;;;;5088289;28;20611;-63
2021/08/04 05:23:23;;;;;;;2.40;2.20;;;22.40;33.50;;;;;;5089334;28;20167;-63
2021/08/04 05:25:49;;;;;;;2.57;2.37;;;22.40;33.40;;;;;;5089740;28;20397;-65
2021/08/04 05:28:14;;;;;;;3.10;2.70;;;22.40;33.40;;;;;;5089023;28;20193;-64
2021/08/04 05:30:40;;;;;;;2.70;2.50;;;22.40;33.50;;;;;;5088979;28;20244;-63
2021/08/04 05:33:05;;;;;;;3.03;2.70;;;22.40;33.60;;;;;;5088857;28;20206;-64
2021/08/04 05:35:31;;;;;;;5.43;2.57;;;22.40;33.40;;;;;;5089036;28;20250;-64
2021/08/04 05:37:56;;;;;;;3.40;2.60;;;22.50;33.40;;;;;;5089012;28;20240;-64
2021/08/04 05:40:22;;;;;;;2.53;2.40;;;22.40;33.30;;;;;;5088710;28;20183;-64
2021/08/04 05:42:47;;;;;;;2.70;2.40;;;22.50;33.40;;;;;;5088384;28;20179;-65
2021/08/04 05:45:13;;;;;;;2.33;2.20;;;22.40;33.30;;;;;;5088040;28;20174;-65
2021/08/04 05:47:39;;;;;;;3.00;2.43;;;22.40;33.20;;;;;;5088295;28;20293;-65
2021/08/04 05:50:05;;;;;;;2.90;2.33;;;22.40;33.20;;;;;;5086150;28;20279;-66
2021/08/04 05:52:30;;;;;;;2.17;2.07;;;22.40;33.40;;;;;;5085951;28;20213;-63
2021/08/04 05:54:56;;;;;;;2.80;2.60;;;22.40;33.20;;;;;;5087723;28;20413;-64
2021/08/04 05:57:22;;;;;;;2.93;2.63;;;22.40;33.20;;;;;;5088210;28;20175;-65
2021/08/04 05:59:47;;;;;;;3.43;2.73;;;22.50;33.20;;;;;;5088098;28;20191;-66
2021/08/04 06:02:13;;;;;;;3.47;3.07;;;22.40;33.10;;;;;;5088632;28;20182;-65
2021/08/04 06:04:38;;;;;;;3.37;2.80;;;22.50;33.00;;;;;;5069471;28;20191;-66
2021/08/04 06:07:04;;;;;;;3.83;3.00;;;22.50;33.00;;;;;;5088137;28;20185;-66
2021/08/04 06:09:30;;;;;;;3.30;3.00;;;22.50;33.00;;;;;;5087797;28;20199;-66
2021/08/04 06:11:57;;;;;;;8.30;3.20;;;22.50;32.90;;;;;;5086649;28;20664;-65
2021/08/04 06:14:22;;;;;;;4.03;3.63;;;22.50;32.80;;;;;;5087992;28;20405;-64
2021/08/04 06:16:48;;;;;;;2.80;2.60;;;22.50;32.80;;;;;;5087716;28;20416;-63
2021/08/04 06:19:13;;;;;;;2.73;2.53;;;22.50;32.60;;;;;;5087455;28;20567;-62
2021/08/04 06:21:39;;;;;;;4.40;3.07;;;22.50;32.50;;;;;;5087678;28;20555;-63
2021/08/04 06:24:05;;;;;;;3.00;2.80;;;22.50;32.40;;;;;;5087844;28;20253;-63
2021/08/04 06:26:30;;;;;;;3.00;2.80;;;22.50;32.10;;;;;;5086265;28;20420;-63
2021/08/04 06:28:56;;;;;;;3.00;2.40;;;22.50;32.00;;;;;;5069696;28;20171;-63
2021/08/04 06:31:21;;;;;;;2.80;2.60;;;22.50;32.10;;;;;;5087635;28;20843;-63
2021/08/04 06:33:47;;;;;;;2.50;2.30;;;22.50;32.00;;;;;;5089795;28;20223;-63
2021/08/04 06:36:12;;;;;;;2.80;2.60;;;22.50;32.00;;;;;;5091224;28;20603;-63
2021/08/04 06:38:38;;;;;;;2.30;2.10;;;22.50;32.00;;;;;;5091550;28;20249;-65
2021/08/04 06:41:03;;;;;;;3.20;2.63;;;22.50;32.00;;;;;;5092676;28;20225;-65
2021/08/04 06:43:29;;;;;;;2.40;2.30;;;22.40;32.00;;;;;;5092207;28;20275;-66
2021/08/04 06:45:54;;;;;;;2.83;2.63;;;22.50;32.10;;;;;;5089507;28;20209;-67
2021/08/04 06:48:20;;;;;;;3.13;2.77;;;22.40;32.00;;;;;;5090435;28;20190;-64
2021/08/04 06:50:46;;;;;;;4.10;3.10;;;22.50;32.10;;;;;;5091986;28;20187;-66
2021/08/04 06:53:11;;;;;;;6.97;2.70;;;22.50;32.00;;;;;;5091143;28;20217;-65
2021/08/04 06:55:37;;;;;;;3.27;2.70;;;22.50;32.00;;;;;;5091765;28;20621;-64
2021/08/04 06:58:03;;;;;;;3.40;2.80;;;22.50;32.10;;;;;;5091465;28;20166;-64
2021/08/04 07:00:29;;;;;;;4.27;3.97;;;22.50;32.00;;;;;;5091522;28;20847;-65
2021/08/04 07:02:54;;;;;;;5.30;2.90;;;22.50;32.00;;;;;;5090822;28;20490;-65
2021/08/04 07:05:20;;;;;;;3.67;2.97;;;22.50;32.00;;;;;;5091178;28;20179;-65
2021/08/04 07:07:46;;;;;;;3.00;2.77;;;22.50;32.10;;;;;;5091875;28;20174;-64
2021/08/04 07:10:13;;;;;;;2.90;2.70;;;22.50;31.90;;;;;;5091466;28;20927;-64
2021/08/04 07:12:38;;;;;;;3.63;3.40;;;22.50;31.90;;;;;;5090694;28;20633;-67
2021/08/04 07:15:05;;;;;;;6.93;3.10;;;22.50;31.90;;;;;;5091096;28;20492;-65
2021/08/04 07:17:42;;;;;;;2.73;2.53;;;22.60;31.90;;;;;;5090905;28;20253;-64
2021/08/04 07:20:09;;;;;;;5.00;2.80;;;22.60;31.50;;;;;;5091311;28;20432;-64
2021/08/04 07:22:34;;;;;;;3.70;2.80;;;22.60;31.50;;;;;;5090897;28;20405;-65
2021/08/04 07:25:00;;;;;;;2.80;2.60;;;22.60;31.40;;;;;;5090894;28;20401;-66
2021/08/04 07:27:25;;;;;;;3.60;2.80;;;22.60;31.10;;;;;;5090732;28;20186;-63
2021/08/04 07:29:51;;;;;;;4.33;2.60;;;22.60;31.00;;;;;;5091340;28;20210;-65
2021/08/04 07:32:16;;;;;;;2.60;2.40;;;22.60;30.80;;;;;;5091689;28;20273;-65
2021/08/04 07:34:42;;;;;;;2.47;2.37;;;22.70;30.80;;;;;;5091464;28;20216;-65
2021/08/04 07:37:08;;;;;;;2.50;2.30;;;22.70;30.80;;;;;;5091629;28;20163;-66
2021/08/04 07:39:34;;;;;;;3.27;2.90;;;22.70;31.10;;;;;;5090399;28;20697;-67
2021/08/04 07:42:00;;;;;;;3.40;3.10;;;22.70;31.30;;;;;;5090933;28;20408;-69
2021/08/04 07:44:25;;;;;;;3.20;2.47;;;22.70;31.20;;;;;;5089400;28;20633;-65
2021/08/04 07:46:51;;;;;;;2.67;2.20;;;22.70;31.20;;;;;;5089972;28;20197;-66
2021/08/04 07:49:16;;;;;;;3.00;2.80;;;22.70;30.70;;;;;;5090935;28;20578;-66
2021/08/04 07:51:42;;;;;;;3.20;2.63;;;22.70;30.40;;;;;;5091309;28;20202;-67
2021/08/04 07:54:07;;;;;;;2.20;2.10;;;22.80;30.50;;;;;;5090946;28;20205;-66
2021/08/04 07:56:33;;;;;;;2.43;2.23;;;22.70;30.40;;;;;;5090807;28;20633;-65
2021/08/04 07:59:02;;;;;;;3.00;2.80;;;22.70;30.40;;;;;;5089685;28;20979;-66
2021/08/04 08:01:29;;;;;;;2.60;2.40;;;22.80;30.50;;;;;;5091423;28;20182;-66
2021/08/04 08:03:55;;;;;;;5.30;3.03;;;22.70;30.50;;;;;;5091106;28;20927;-63
2021/08/04 08:06:20;;;;;;;2.80;2.60;;;22.80;30.50;;;;;;5090682;28;20451;-62
2021/08/04 08:08:46;;;;;;;3.20;2.47;;;22.80;30.30;;;;;;5090964;28;20202;-65
2021/08/04 08:11:11;;;;;;;2.87;2.63;;;22.80;30.20;;;;;;5090480;28;20174;-66
2021/08/04 08:13:37;;;;;;;3.17;2.97;;;22.80;30.20;;;;;;5090712;28;20688;-66
2021/08/04 08:16:03;;;;;;;3.00;2.80;;;22.80;30.20;;;;;;5090750;28;20641;-66
2021/08/04 08:18:28;;;;;;;2.60;2.50;;;22.80;30.10;;;;;;5090381;28;20190;-65
2021/08/04 08:20:54;;;;;;;3.73;2.60;;;22.80;30.20;;;;;;5090405;28;20559;-64
2021/08/04 08:23:19;;;;;;;2.90;2.67;;;22.70;30.60;;;;;;5090537;28;20182;-65
2021/08/04 08:25:45;;;;;;;3.03;2.70;;;22.70;29.80;;;;;;5090603;28;20185;-65
2021/08/04 08:28:11;;;;;;;2.53;2.33;;;22.70;29.80;;;;;;5090238;28;20183;-65
2021/08/04 08:30:37;;;;;;;2.13;2.03;;;22.70;30.00;;;;;;5089180;28;20280;-64
2021/08/04 08:33:03;;;;;;;2.57;2.37;;;22.70;30.30;;;;;;5089731;28;20205;-65
2021/08/04 08:35:30;;;;;;;2.50;2.30;;;22.70;30.60;;;;;;5088711;28;20423;-65
2021/08/04 08:37:56;;;;;;;2.10;1.90;;;22.70;30.60;;;;;;5090090;28;20400;-64
2021/08/04 08:40:22;;;;;;;2.47;2.37;;;22.70;30.90;;;;;;5090494;28;20433;-64
2021/08/04 08:42:47;;;;;;;2.70;2.50;;;22.70;30.90;;;;;;5090720;28;20202;-65
2021/08/04 08:45:14;;;;;;;2.30;2.20;;;22.70;30.90;;;;;;5090886;28;20711;-65
2021/08/04 08:47:44;;;;;;;3.03;2.60;;;22.70;30.70;;;;;;5090460;28;20194;-65
2021/08/04 08:50:11;;;;;;;2.97;2.77;;;22.70;30.80;;;;;;5088976;28;20428;-65
2021/08/04 08:52:37;;;;;;;2.70;2.50;;;22.60;30.80;;;;;;5089520;28;20460;-65
2021/08/04 08:55:04;;;;;;;2.40;2.30;;;22.60;31.10;;;;;;5089213;28;20452;-65
2021/08/04 08:57:30;;;;;;;2.90;2.70;;;22.70;31.10;;;;;;5088884;28;20175;-65
2021/08/04 08:59:57;;;;;;;3.47;2.80;;;22.70;31.20;;;;;;5090088;28;20818;-65
2021/08/04 09:02:24;;;;;;;2.73;2.53;;;22.60;31.00;;;;;;5090718;28;20182;-64
2021/08/04 09:04:56;;;;;;;3.20;3.00;;;22.70;31.10;;;;;;5088666;28;20908;-64
2021/08/04 09:07:36;;;;;;;2.30;2.20;;;22.70;31.20;;;;;;5089108;28;20401;-65
2021/08/04 09:10:31;;;;;;;2.70;2.50;;;22.60;30.90;;;;;;5089711;28;20480;-64
2021/08/04 09:12:59;;;;;;;3.67;2.80;;;22.60;30.90;;;;;;5088621;28;20831;-64
2021/08/04 09:15:32;;;;;;;2.63;2.43;;;22.70;31.10;;;;;;5087441;28;20409;-65
2021/08/04 09:17:58;;;;;;;4.23;2.87;;;22.60;30.90;;;;;;5088426;28;20416;-64
2021/08/04 09:20:27;;;;;;;2.67;2.50;;;22.70;31.40;;;;;;5088625;28;20799;-64
2021/08/04 09:22:59;;;;;;;3.03;2.83;;;22.70;31.20;;;;;;5088669;28;20405;-64
2021/08/04 09:25:25;;;;;;;2.37;2.20;;;22.70;31.20;;;;;;5088034;28;20408;-65
2021/08/04 09:27:57;;;;;;;2.60;2.40;;;22.70;31.10;;;;;;5088752;28;20469;-64
2021/08/04 09:30:26;;;;;;;3.07;2.87;;;22.70;30.90;;;;;;5088456;28;20943;-64
2021/08/04 09:32:54;;;;;;;2.80;2.60;;;22.70;30.90;;;;;;5088208;28;20531;-65
2021/08/04 09:35:22;;;;;;;2.80;2.63;;;22.80;31.10;;;;;;5088578;28;20823;-64
2021/08/04 09:37:48;;;;;;;2.83;2.63;;;22.70;31.20;;;;;;5087547;28;20982;-63
2021/08/04 09:40:21;;;;;;;3.33;3.03;;;22.70;31.20;;;;;;5088436;28;20433;-64
2021/08/04 09:42:54;;;;;;;2.80;2.60;;;22.70;31.10;;;;;;5088886;28;20407;-64
2021/08/04 09:45:25;;;;;;;2.90;2.70;;;22.70;31.00;;;;;;5088311;28;20396;-64
2021/08/04 09:48:01;;;;;;;3.13;2.83;;;22.70;31.00;;;;;;5088358;28;20454;-64
2021/08/04 09:50:42;;;;;;;3.13;2.93;;;22.70;30.90;;;;;;5088466;28;20615;-63
2021/08/04 09:53:07;;;;;;;3.40;3.10;;;22.70;31.00;;;;;;5088587;28;20486;-64
2021/08/04 09:55:33;;;;;;;3.10;2.90;;;22.70;30.90;;;;;;5086913;28;20405;-64
2021/08/04 09:57:59;;;;;;;3.23;3.00;;;22.70;30.80;;;;;;5088198;28;20253;-64
2021/08/04 10:00:24;;;;;;;5.13;2.90;;;22.60;30.50;;;;;;5088479;28;20191;-65
2021/08/04 10:02:52;;;;;;;3.30;3.00;;;22.60;30.50;;;;;;5088297;28;20507;-64
2021/08/04 10:05:25;;;;;;;3.30;3.10;;;22.60;30.20;;;;;;5087843;28;20190;-64
2021/08/04 10:08:02;;;;;;;3.00;2.70;;;22.60;30.50;;;;;;5089233;28;20413;-64
2021/08/04 10:10:40;;;;;;;3.63;3.13;;;22.70;30.60;;;;;;5092203;28;20511;-64
2021/08/04 10:13:09;;;;;;;2.73;2.63;;;22.60;30.70;;;;;;5091951;28;20463;-65
2021/08/04 10:15:41;;;;;;;2.73;2.57;;;22.60;31.30;;;;;;5092007;28;20918;-65
2021/08/04 10:18:19;;;;;;;3.20;3.00;;;22.60;30.50;;;;;;5092106;28;20495;-64
2021/08/04 10:20:46;;;;;;;2.97;2.77;;;22.60;30.10;;;;;;5091753;28;20432;-64
2021/08/04 10:23:15;;;;;;;2.40;2.30;;;22.60;29.90;;;;;;5091565;28;20447;-64
2021/08/04 10:25:41;;;;;;;2.80;2.60;;;22.60;29.90;;;;;;5091796;28;20821;-64
2021/08/04 10:28:08;;;;;;;2.77;2.57;;;22.60;30.10;;;;;;5091751;28;20428;-65
2021/08/04 10:30:34;;;;;;;2.80;2.60;;;22.60;30.40;;;;;;5091568;28;20832;-64
2021/08/04 10:33:02;;;;;;;2.90;2.47;;;22.60;30.60;;;;;;5091416;28;21172;-64
2021/08/04 10:35:29;;;;;;;3.07;2.87;;;22.60;31.40;;;;;;5091350;28;20419;-64
2021/08/04 10:37:55;;;;;;;3.60;3.30;;;22.60;30.90;;;;;;5092881;28;20439;-65
2021/08/04 10:40:24;;;;;;;2.70;2.60;;;22.70;31.10;;;;;;5093019;28;20798;-65
2021/08/04 10:42:49;;;;;;;3.20;3.00;;;22.60;31.90;;;;;;5092976;28;20179;-65
2021/08/04 10:45:36;;;;;;;3.20;2.90;;;22.70;31.30;;;;;;5092693;28;20420;-66
2021/08/04 10:48:25;;;;;;;3.00;2.70;;;22.70;31.20;;;;;;5091390;28;20603;-65
2021/08/04 10:51:13;;;;;;;3.60;3.30;;;22.70;31.00;;;;;;5092465;28;20436;-65
2021/08/04 10:54:00;;;;;;;2.90;2.70;;;22.70;31.10;;;;;;5091533;28;20508;-64
2021/08/04 10:56:31;;;;;;;2.80;2.60;;;22.70;31.10;;;;;;5092742;28;20933;-64
2021/08/04 10:59:09;;;;;;;3.23;3.00;;;22.70;31.10;;;;;;5091849;28;20417;-64
2021/08/04 11:01:41;;;;;;;2.90;2.70;;;22.70;31.10;;;;;;5091330;28;20442;-66
2021/08/04 11:04:12;;;;;;;3.10;2.90;;;22.80;31.20;;;;;;5091424;28;21086;-65
2021/08/04 11:07:09;;;;;;;2.60;2.50;;;22.70;31.10;;;;;;5091519;28;20512;-65
2021/08/04 11:09:36;;;;;;;2.80;2.60;;;22.80;30.90;;;;;;5086403;28;20960;-65
2021/08/04 11:12:10;;;;;;;2.80;2.60;;;22.80;30.80;;;;;;5092219;28;20458;-64
2021/08/04 11:14:47;;;;;;;2.77;2.57;;;22.80;30.60;;;;;;5091524;28;20405;-64
2021/08/04 11:17:25;;;;;;;3.00;2.80;;;22.80;30.80;;;;;;5091509;28;20485;-65
2021/08/04 11:19:56;;;;;;;2.43;2.33;;;22.80;31.00;;;;;;5090917;28;20427;-65
2021/08/04 11:22:42;;;;;;;2.80;2.60;;;22.80;31.10;;;;;;5091109;28;20412;-65
2021/08/04 11:25:08;;;;;;;3.13;2.83;;;22.80;31.00;;;;;;5089623;28;20914;-64
2021/08/04 11:27:37;;;;;;;3.47;2.53;;;22.80;31.00;;;;;;5090530;28;21256;-65
2021/08/04 11:30:04;;;;;;;2.60;2.50;;;22.80;31.10;;;;;;5089821;28;20511;-65
2021/08/04 11:32:31;;;;;;;2.80;2.60;;;22.80;31.10;;;;;;5090714;28;20969;-65
2021/08/04 11:35:13;;;;;;;3.20;3.00;;;22.80;30.90;;;;;;5090527;28;20444;-65
2021/08/04 11:37:44;;;;;;;3.80;3.13;;;22.80;30.80;;;;;;5089626;28;20428;-65
2021/08/04 11:40:10;;;;;;;2.83;2.70;;;22.80;31.00;;;;;;5090535;28;20441;-65
2021/08/04 11:42:36;;;;;;;2.57;2.47;;;22.80;31.00;;;;;;5090249;28;20780;-65
2021/08/04 11:45:11;;;;;;;3.10;2.80;;;22.80;31.10;;;;;;5090256;28;20397;-64
2021/08/04 11:47:37;;;;;;;2.83;2.63;;;22.80;31.10;;;;;;5090686;28;20617;-64
2021/08/04 11:50:08;;;;;;;2.50;2.40;;;22.80;31.10;;;;;;5090635;28;20888;-64
2021/08/04 11:52:35;;;;;;;2.80;2.60;;;22.80;31.20;;;;;;5090076;28;20458;-65
2021/08/04 11:55:10;;;;;;;2.83;2.63;;;22.80;31.30;;;;;;5089848;28;20432;-64
2021/08/04 11:57:42;;;;;;;2.60;2.40;;;22.80;31.20;;;;;;5089844;28;20495;-64
2021/08/04 12:00:09;;;;;;;2.60;2.40;;;22.80;31.20;;;;;;5089987;28;20475;-64
2021/08/04 12:02:37;;;;;;;2.30;2.20;;;22.80;31.20;;;;;;5089644;28;20404;-64
2021/08/04 12:05:05;;;;;;;3.50;3.20;;;22.80;30.80;;;;;;5089460;28;20409;-64
2021/08/04 12:07:34;;;;;;;2.70;2.50;;;22.80;30.50;;;;;;5089886;28;20401;-65
2021/08/04 12:10:01;;;;;;;2.80;2.60;;;22.80;30.60;;;;;;5090058;28;20437;-65
2021/08/04 12:12:33;;;;;;;2.80;2.50;;;22.80;30.80;;;;;;5090797;28;20876;-65
2021/08/04 12:14:59;;;;;;;2.90;2.70;;;22.80;30.90;;;;;;5090771;28;20521;-65
2021/08/04 12:17:27;;;;;;;2.40;2.20;;;22.80;30.70;;;;;;5090559;28;20401;-64
2021/08/04 12:19:55;;;;;;;3.93;2.53;;;22.80;30.40;;;;;;5090742;28;20433;-65
2021/08/04 12:22:26;;;;;;;3.73;2.70;;;22.80;30.60;;;;;;5089892;28;20759;-64
2021/08/04 12:24:58;;;;;;;4.37;2.83;;;22.80;30.80;;;;;;5089043;28;20413;-65
2021/08/04 12:27:48;;;;;;;3.03;2.73;;;22.80;30.90;;;;;;5089533;28;20404;-66
2021/08/04 12:30:16;;;;;;;2.87;2.67;;;22.80;31.00;;;;;;5089197;28;20425;-64
2021/08/04 12:33:06;;;;;;;2.83;2.63;;;22.80;31.00;;;;;;5089005;28;20471;-65
2021/08/04 12:36:02;;;;;;;2.87;2.17;;;22.80;31.00;;;;;;5087841;28;20417;-65
2021/08/04 12:38:34;;;;;;;2.40;2.30;;;22.80;31.10;;;;;;5089057;28;20458;-65
2021/08/04 12:40:59;;;;;;;3.43;3.10;;;22.80;31.10;;;;;;5089416;28;20511;-65
2021/08/04 12:43:43;;;;;;;2.80;2.60;;;22.80;31.10;;;;;;5089190;28;20500;-65
2021/08/04 12:46:10;;;;;;;2.57;2.37;;;22.80;31.10;;;;;;5088888;28;20710;-65
2021/08/04 12:48:47;;;;;;;2.70;2.50;;;22.80;31.10;;;;;;5088436;28;20992;-64
2021/08/04 12:51:18;;;;;;;2.90;2.70;;;22.80;30.90;;;;;;5088748;28;20918;-65
2021/08/04 12:53:54;;;;;;;4.23;2.60;;;22.80;30.80;;;;;;5088544;28;20436;-64